Time,TemperatureF,DewpointF,PressureIn,WindDirection,WindDirectionDegrees,WindSpeedMPH,WindSpeedGustMPH,Humidity,HourlyPrecipIn,Conditions,Clouds,dailyrainin,SolarRadiationWatts/m^2,SoftwareType,DateUTC
2013-09-20 00:03:00,81.0,71.0,-100.00,SE,139,5.0,12.0,72,0.00,,,0.01,15.000000,,2013-09-20 05:03:00,
2013-09-20 00:13:00,81.0,71.0,-100.00,SE,139,5.0,12.0,72,0.00,,,0.01,15.000000,,2013-09-20 05:13:00,
2013-09-20 00:23:00,81.0,71.0,-100.00,SE,139,5.0,12.0,72,0.00,,,0.01,15.000000,,2013-09-20 05:23:00,
2013-09-20 00:53:00,81.0,70.0,-100.00,SE,129,4.0,10.0,69,0.00,,,0.01,15.000000,,2013-09-20 05:53:00,
2013-09-20 01:03:00,81.0,70.0,-100.00,SE,129,4.0,10.0,69,0.00,,,0.01,15.000000,,2013-09-20 06:03:00,
2013-09-20 01:12:00,81.0,70.0,-100.00,SE,129,4.0,10.0,69,0.00,,,0.01,15.000000,,2013-09-20 06:12:00,
2013-09-20 01:22:00,81.0,70.0,-100.00,SE,129,4.0,10.0,69,0.00,,,0.01,15.000000,,2013-09-20 06:22:00,
2013-09-20 01:52:00,80.0,70.0,-100.00,SE,124,4.0,9.0,71,0.00,,,0.01,15.000000,,2013-09-20 06:52:00,
2013-09-20 02:02:00,80.0,70.0,-100.00,SE,124,4.0,9.0,71,0.00,,,0.01,15.000000,,2013-09-20 07:02:00,
2013-09-20 02:12:00,80.0,70.0,-100.00,SE,124,4.0,9.0,71,0.00,,,0.01,15.000000,,2013-09-20 07:12:00,
2013-09-20 02:23:00,80.0,70.0,-100.00,SE,124,4.0,9.0,71,0.00,,,0.01,15.000000,,2013-09-20 07:23:00,
2013-09-20 02:53:00,79.0,70.0,-100.00,ESE,116,3.0,7.0,74,0.00,,,0.01,13.000000,,2013-09-20 07:53:00,
2013-09-20 03:02:00,79.0,70.0,-100.00,ESE,116,3.0,7.0,74,0.00,,,0.01,13.000000,,2013-09-20 08:02:00,
2013-09-20 03:11:00,79.0,70.0,-100.00,ESE,116,3.0,7.0,74,0.00,,,0.01,13.000000,,2013-09-20 08:11:00,
2013-09-20 03:22:00,79.0,70.0,-100.00,ESE,116,3.0,7.0,74,0.00,,,0.01,13.000000,,2013-09-20 08:22:00,
2013-09-20 03:52:00,80.0,70.0,-100.00,SE,126,4.0,10.0,72,0.00,,,0.00,11.000000,,2013-09-20 08:52:00,
2013-09-20 04:01:00,80.0,70.0,-100.00,SE,126,4.0,10.0,72,0.00,,,0.00,11.000000,,2013-09-20 09:01:00,
2013-09-20 04:12:00,80.0,70.0,-100.00,SE,126,4.0,10.0,72,0.00,,,0.00,11.000000,,2013-09-20 09:12:00,
2013-09-20 04:22:00,80.0,70.0,-100.00,SE,126,4.0,10.0,72,0.00,,,0.00,11.000000,,2013-09-20 09:22:00,
2013-09-20 04:53:00,73.0,69.0,-100.00,NE,48,3.0,5.0,86,0.00,,,0.00,12.000000,,2013-09-20 09:53:00,
2013-09-20 05:03:00,73.0,69.0,-100.00,NE,48,3.0,5.0,86,0.00,,,0.00,12.000000,,2013-09-20 10:03:00,
2013-09-20 05:12:00,73.0,69.0,-100.00,NE,48,3.0,5.0,86,0.00,,,0.00,12.000000,,2013-09-20 10:12:00,
2013-09-20 05:23:00,73.0,69.0,-100.00,NE,48,3.0,5.0,86,0.00,,,0.00,12.000000,,2013-09-20 10:23:00,
2013-09-20 05:53:00,73.0,70.0,-100.00,NE,39,0.0,-999.0,89,0.00,,,0.00,11.000000,,2013-09-20 10:53:00,
2013-09-20 06:03:00,73.0,70.0,-100.00,NE,39,0.0,-999.0,89,0.00,,,0.00,11.000000,,2013-09-20 11:03:00,
2013-09-20 06:12:00,73.0,70.0,-100.00,NE,39,0.0,-999.0,89,0.00,,,0.00,11.000000,,2013-09-20 11:12:00,
2013-09-20 06:23:00,73.0,70.0,-100.00,NE,39,0.0,-999.0,89,0.00,,,0.00,11.000000,,2013-09-20 11:23:00,
2013-09-20 06:52:00,73.0,70.0,-100.00,NE,40,0.0,3.0,89,0.00,,,0.00,11.000000,,2013-09-20 11:52:00,
2013-09-20 07:02:00,73.0,70.0,-100.00,NE,40,0.0,3.0,89,0.00,,,0.00,11.000000,,2013-09-20 12:02:00,
2013-09-20 07:12:00,73.0,70.0,-100.00,NE,40,0.0,3.0,89,0.00,,,0.00,11.000000,,2013-09-20 12:12:00,
2013-09-20 07:22:00,73.0,70.0,-100.00,NE,40,0.0,3.0,89,0.00,,,0.00,11.000000,,2013-09-20 12:22:00,
2013-09-20 07:52:00,74.0,71.0,-100.00,NE,43,1.0,3.0,89,0.00,,,0.00,35.000000,,2013-09-20 12:52:00,
2013-09-20 08:02:00,74.0,71.0,-100.00,NE,43,1.0,3.0,89,0.00,,,0.00,35.000000,,2013-09-20 13:02:00,
2013-09-20 08:12:00,74.0,71.0,-100.00,NE,43,1.0,3.0,89,0.00,,,0.00,35.000000,,2013-09-20 13:12:00,
2013-09-20 08:21:00,74.0,71.0,-100.00,NE,43,1.0,3.0,89,0.00,,,0.00,35.000000,,2013-09-20 13:21:00,
2013-09-20 08:53:00,83.0,73.0,-100.00,ESE,109,2.0,5.0,71,0.00,,,0.00,192.000000,,2013-09-20 13:53:00,
2013-09-20 09:02:00,83.0,73.0,-100.00,ESE,109,2.0,5.0,71,0.00,,,0.00,192.000000,,2013-09-20 14:02:00,
2013-09-20 09:11:00,83.0,73.0,-100.00,ESE,109,2.0,5.0,71,0.00,,,0.00,192.000000,,2013-09-20 14:11:00,
2013-09-20 09:21:00,83.0,73.0,-100.00,ESE,109,2.0,5.0,71,0.00,,,0.00,192.000000,,2013-09-20 14:21:00,
2013-09-20 09:52:00,86.0,72.0,-100.00,SE,137,7.0,14.0,64,0.00,,,0.00,364.000000,,2013-09-20 14:52:00,
2013-09-20 10:02:00,86.0,72.0,-100.00,SE,137,7.0,14.0,64,0.00,,,0.00,364.000000,,2013-09-20 15:02:00,
2013-09-20 10:12:00,86.0,72.0,-100.00,SE,137,7.0,14.0,64,0.00,,,0.00,364.000000,,2013-09-20 15:12:00,
2013-09-20 10:22:00,86.0,72.0,-100.00,SE,137,7.0,14.0,64,0.00,,,0.00,364.000000,,2013-09-20 15:22:00,
2013-09-20 10:54:00,87.0,72.0,-100.00,SE,136,8.0,14.0,62,0.00,,,0.00,494.000000,,2013-09-20 15:54:00,
2013-09-20 11:04:00,87.0,72.0,-100.00,SE,136,8.0,14.0,62,0.00,,,0.00,494.000000,,2013-09-20 16:04:00,
2013-09-20 11:13:00,87.0,72.0,-100.00,SE,136,8.0,14.0,62,0.00,,,0.00,494.000000,,2013-09-20 16:13:00,
2013-09-20 11:23:00,87.0,72.0,-100.00,SE,136,8.0,14.0,62,0.00,,,0.00,494.000000,,2013-09-20 16:23:00,
2013-09-20 11:53:00,89.0,73.0,-100.00,SE,131,8.0,16.0,59,0.00,,,0.00,747.000000,,2013-09-20 16:53:00,
2013-09-20 12:03:00,89.0,73.0,-100.00,SE,131,8.0,16.0,59,0.00,,,0.00,747.000000,,2013-09-20 17:03:00,
2013-09-20 12:13:00,89.0,73.0,-100.00,SE,131,8.0,16.0,59,0.00,,,0.00,747.000000,,2013-09-20 17:13:00,
2013-09-20 12:24:00,89.0,73.0,-100.00,SE,131,8.0,16.0,59,0.00,,,0.00,747.000000,,2013-09-20 17:24:00,
2013-09-20 12:53:00,86.0,76.0,-100.00,SSE,158,7.0,17.0,72,0.00,,,0.00,650.000000,,2013-09-20 17:53:00,
2013-09-20 13:02:00,86.0,76.0,-100.00,SSE,158,7.0,17.0,72,0.00,,,0.00,650.000000,,2013-09-20 18:02:00,
2013-09-20 13:12:00,86.0,76.0,-100.00,SSE,158,7.0,17.0,72,0.00,,,0.00,650.000000,,2013-09-20 18:12:00,
2013-09-20 13:22:00,86.0,76.0,-100.00,SSE,158,7.0,17.0,72,0.00,,,0.00,650.000000,,2013-09-20 18:22:00,
2013-09-20 13:52:00,84.0,77.0,-100.00,SE,146,6.0,17.0,80,0.07,,,0.07,704.000000,,2013-09-20 18:52:00,
2013-09-20 14:02:00,84.0,77.0,-100.00,SE,146,6.0,17.0,80,0.07,,,0.07,704.000000,,2013-09-20 19:02:00,
2013-09-20 14:11:00,84.0,77.0,-100.00,SE,146,6.0,17.0,80,0.07,,,0.07,704.000000,,2013-09-20 19:11:00,
2013-09-20 14:22:00,84.0,77.0,-100.00,SE,146,6.0,17.0,80,0.07,,,0.07,704.000000,,2013-09-20 19:22:00,
2013-09-20 14:53:00,87.0,74.0,-100.00,SE,132,9.0,16.0,66,0.00,,,0.07,813.000000,,2013-09-20 19:53:00,
2013-09-20 15:03:00,87.0,74.0,-100.00,SE,132,9.0,16.0,66,0.00,,,0.07,813.000000,,2013-09-20 20:03:00,
2013-09-20 15:12:00,87.0,74.0,-100.00,SE,132,9.0,16.0,66,0.00,,,0.07,813.000000,,2013-09-20 20:12:00,
2013-09-20 15:22:00,87.0,74.0,-100.00,SE,132,9.0,16.0,66,0.00,,,0.07,813.000000,,2013-09-20 20:22:00,
2013-09-20 15:52:00,84.0,73.0,-100.00,SE,138,8.0,17.0,70,0.00,,,0.07,533.000000,,2013-09-20 20:52:00,
2013-09-20 16:02:00,84.0,73.0,-100.00,SE,138,8.0,17.0,70,0.00,,,0.07,533.000000,,2013-09-20 21:02:00,
2013-09-20 16:12:00,84.0,73.0,-100.00,SE,138,8.0,17.0,70,0.00,,,0.07,533.000000,,2013-09-20 21:12:00,
2013-09-20 16:21:00,84.0,73.0,-100.00,SE,138,8.0,17.0,70,0.00,,,0.07,533.000000,,2013-09-20 21:21:00,
2013-09-20 16:55:00,84.0,74.0,-100.00,SSE,151,8.0,15.0,72,0.01,,,0.08,386.000000,,2013-09-20 21:55:00,
2013-09-20 17:04:00,84.0,74.0,-100.00,SSE,151,8.0,15.0,72,0.01,,,0.08,386.000000,,2013-09-20 22:04:00,
2013-09-20 17:14:00,84.0,74.0,-100.00,SSE,151,8.0,15.0,72,0.01,,,0.08,386.000000,,2013-09-20 22:14:00,
2013-09-20 17:23:00,84.0,74.0,-100.00,SSE,151,8.0,15.0,72,0.01,,,0.08,386.000000,,2013-09-20 22:23:00,
2013-09-20 17:53:00,83.0,74.0,-100.00,SSE,168,6.0,14.0,75,0.00,,,0.08,148.000000,,2013-09-20 22:53:00,
2013-09-20 18:02:00,83.0,74.0,-100.00,SSE,168,6.0,14.0,75,0.00,,,0.08,148.000000,,2013-09-20 23:02:00,
2013-09-20 18:13:00,83.0,74.0,-100.00,SSE,168,6.0,14.0,75,0.00,,,0.08,148.000000,,2013-09-20 23:13:00,
2013-09-20 18:22:00,83.0,74.0,-100.00,SSE,168,6.0,14.0,75,0.00,,,0.08,148.000000,,2013-09-20 23:22:00,
2013-09-20 18:53:00,82.0,73.0,-100.00,SSE,165,5.0,14.0,75,0.00,,,0.08,58.000000,,2013-09-20 23:53:00,
2013-09-20 19:02:00,82.0,73.0,-100.00,SSE,165,5.0,14.0,75,0.00,,,0.08,58.000000,,2013-09-21 00:02:00,
2013-09-20 19:11:00,82.0,73.0,-100.00,SSE,165,5.0,14.0,75,0.00,,,0.08,58.000000,,2013-09-21 00:11:00,
2013-09-20 19:21:00,82.0,73.0,-100.00,SSE,165,5.0,14.0,75,0.00,,,0.08,58.000000,,2013-09-21 00:21:00,
2013-09-20 19:52:00,81.0,73.0,-100.00,SSE,162,3.0,10.0,77,0.00,,,0.08,7.000000,,2013-09-21 00:52:00,
2013-09-20 20:02:00,81.0,73.0,-100.00,SSE,162,3.0,10.0,77,0.00,,,0.08,7.000000,,2013-09-21 01:02:00,
2013-09-20 20:12:00,81.0,73.0,-100.00,SSE,162,3.0,10.0,77,0.00,,,0.08,7.000000,,2013-09-21 01:12:00,
2013-09-20 20:22:00,81.0,73.0,-100.00,SSE,162,3.0,10.0,77,0.00,,,0.08,7.000000,,2013-09-21 01:22:00,
2013-09-20 20:52:00,80.0,72.0,-100.00,South,184,4.0,11.0,77,0.00,,,0.08,5.000000,,2013-09-21 01:52:00,
2013-09-20 21:02:00,80.0,72.0,-100.00,South,184,4.0,11.0,77,0.00,,,0.08,5.000000,,2013-09-21 02:02:00,
2013-09-20 21:12:00,80.0,72.0,-100.00,South,184,4.0,11.0,77,0.00,,,0.08,5.000000,,2013-09-21 02:12:00,
2013-09-20 21:22:00,80.0,72.0,-100.00,South,184,4.0,11.0,77,0.00,,,0.08,5.000000,,2013-09-21 02:22:00,
2013-09-20 21:52:00,80.0,74.0,-100.00,South,178,4.0,8.0,81,0.00,,,0.08,5.000000,,2013-09-21 02:52:00,
2013-09-20 22:02:00,80.0,74.0,-100.00,South,178,4.0,8.0,81,0.00,,,0.08,5.000000,,2013-09-21 03:02:00,
2013-09-20 22:12:00,80.0,74.0,-100.00,South,178,4.0,8.0,81,0.00,,,0.08,5.000000,,2013-09-21 03:12:00,
2013-09-20 22:22:00,80.0,74.0,-100.00,South,178,4.0,8.0,81,0.00,,,0.08,5.000000,,2013-09-21 03:22:00,
2013-09-20 22:55:00,81.0,74.0,-100.00,South,178,4.0,10.0,79,0.00,,,-99.99,5.000000,,2013-09-21 03:55:00,
2013-09-20 23:04:00,81.0,74.0,-100.00,South,178,4.0,10.0,79,0.00,,,-99.99,5.000000,,2013-09-21 04:04:00,
2013-09-20 23:14:00,81.0,74.0,-100.00,South,178,4.0,10.0,79,0.00,,,-99.99,5.000000,,2013-09-21 04:14:00,
2013-09-20 23:24:00,81.0,74.0,-100.00,South,178,4.0,10.0,79,0.00,,,-99.99,5.000000,,2013-09-21 04:24:00,
2013-09-20 23:54:00,82.0,74.0,-100.00,South,173,5.0,10.0,76,0.00,,,0.08,5.000000,,2013-09-21 04:54:00,